Time;durP1;ratioP1;P1;durP2;ratioP2;P2;SDS_P1;SDS_P2;PMS_P1;PMS_P2;Temp;Humidity;BMP_temperature;BMP_pressure;BME280_temperature;BME280_humidity;BME280_pressure;Samples;Min_cycle;Max_cycle;Signal;HPM_P1;HPM_P2
2023/06/30 00:00:58;;;;;;;39.97;27.35;;;;;;;43.50;nan;100815.41;5099425;28;20436;-49
2023/06/30 00:03:25;;;;;;;14.23;8.45;;;;;;;42.94;nan;100812.94;5112898;28;20051;-50
2023/06/30 00:05:52;;;;;;;18.90;12.43;;;;;;;43.57;nan;100813.13;5106016;28;20039;-50
2023/06/30 00:08:18;;;;;;;17.67;11.20;;;;;;;43.41;nan;100803.25;5114931;28;20048;-49
2023/06/30 00:10:45;;;;;;;22.02;12.23;;;;;;;43.52;nan;100804.84;5113000;28;20354;-49
2023/06/30 00:13:12;;;;;;;20.38;12.27;;;;;;;43.30;nan;100801.63;5110626;28;20059;-49
2023/06/30 00:15:39;;;;;;;18.85;12.35;;;;;;;44.07;nan;100803.81;5108146;28;20035;-49
2023/06/30 00:18:05;;;;;;;19.38;12.40;;;;;;;45.39;nan;100800.50;5103192;28;20056;-49
2023/06/30 00:20:33;;;;;;;21.42;12.45;;;;;;;45.34;nan;100803.34;5114817;28;20056;-49
2023/06/30 00:23:00;;;;;;;29.55;14.68;;;;;;;41.96;nan;100807.63;5109221;28;20063;-49
2023/06/30 00:25:26;;;;;;;20.42;12.52;;;;;;;44.80;nan;100804.69;5106067;28;20361;-49
2023/06/30 00:27:53;;;;;;;24.98;14.02;;;;;;;44.74;nan;100817.00;5114383;28;20060;-49
2023/06/30 00:30:20;;;;;;;28.52;15.60;;;;;;;41.88;nan;100805.44;5103791;28;20124;-49
2023/06/30 00:32:46;;;;;;;27.40;14.95;;;;;;;44.47;nan;100804.50;5101641;28;20055;-49
2023/06/30 00:35:13;;;;;;;24.33;14.70;;;;;;;44.95;nan;100801.66;5100290;28;20051;-49
2023/06/30 00:37:40;;;;;;;25.13;14.88;;;;;;;43.68;nan;100801.91;5104159;28;20047;-49
2023/06/30 00:40:07;;;;;;;25.20;15.38;;;;;;;44.89;nan;100797.28;5103782;28;20512;-49
2023/06/30 00:42:33;;;;;;;24.35;14.43;;;;;;;44.66;nan;100797.03;5113004;28;20047;-49
2023/06/30 00:45:00;;;;;;;35.08;15.55;;;;;;;45.31;nan;100792.78;5111223;28;20044;-49
2023/06/30 00:47:27;;;;;;;26.60;14.48;;;;;;;45.39;nan;100789.34;5097043;28;20098;-49
2023/06/30 00:49:53;;;;;;;25.92;16.38;;;;;;;46.02;nan;100795.50;5113877;28;20063;-49
2023/06/30 00:52:20;;;;;;;25.38;15.63;;;;;;;45.10;nan;100794.25;5102982;28;20060;-49
2023/06/30 00:54:47;;;;;;;26.45;14.60;;;;;;;45.30;nan;100790.28;5107978;28;20060;-49
2023/06/30 00:57:13;;;;;;;22.52;15.70;;;;;;;45.32;nan;100788.88;5110819;27;20057;-49
2023/06/30 00:59:40;;;;;;;27.50;15.32;;;;;;;44.76;nan;100793.28;5105517;28;20069;-49
2023/06/30 01:02:19;;;;;;;23.48;14.07;;;;;;;45.43;nan;100789.53;5109045;28;20054;-50
2023/06/30 01:04:58;;;;;;;23.08;14.98;;;;;;;45.12;nan;100784.41;5102201;28;20056;-49
2023/06/30 01:07:37;;;;;;;25.45;15.63;;;;;;;44.56;nan;100783.19;5110457;28;20051;-49
2023/06/30 01:10:08;;;;;;;30.88;17.50;;;;;;;44.98;nan;100784.38;5112970;28;20503;-49
2023/06/30 01:12:35;;;;;;;28.25;16.38;;;;;;;43.18;nan;100783.34;5103358;28;20340;-49
2023/06/30 01:15:02;;;;;;;27.90;15.98;;;;;;;44.89;nan;100777.78;5095160;28;20105;-49
2023/06/30 01:17:29;;;;;;;25.77;15.07;;;;;;;45.03;nan;100781.50;5110600;28;20044;-49
2023/06/30 01:19:59;;;;;;;26.20;15.82;;;;;;;44.80;nan;100772.03;5105312;27;20447;-49
2023/06/30 01:22:33;;;;;;;27.88;16.48;;;;;;;44.19;nan;100779.22;5106408;28;20069;-49
2023/06/30 01:25:03;;;;;;;27.45;16.65;;;;;;;45.23;nan;100769.19;5101571;28;20048;-49
2023/06/30 01:27:30;;;;;;;28.65;16.65;;;;;;;45.27;nan;100775.00;5109205;28;20060;-49
2023/06/30 01:29:57;;;;;;;24.33;16.10;;;;;;;45.07;nan;100771.41;5111419;28;20113;-49
2023/06/30 01:32:25;;;;;;;28.65;15.80;;;;;;;44.75;nan;100763.75;5095500;28;20051;-50
2023/06/30 01:34:51;;;;;;;26.13;16.33;;;;;;;44.72;nan;100767.16;5110103;28;20060;-49
2023/06/30 01:37:18;;;;;;;25.85;15.38;;;;;;;44.10;nan;100758.66;5095381;28;20048;-49
2023/06/30 01:39:45;;;;;;;27.45;15.85;;;;;;;44.09;nan;100762.56;5107765;28;20077;-49
2023/06/30 01:42:13;;;;;;;28.20;15.55;;;;;;;45.14;nan;100761.81;5112038;27;20059;-49
2023/06/30 01:44:41;;;;;;;23.73;15.25;;;;;;;44.57;nan;100756.16;5108184;28;20047;-49
2023/06/30 01:47:10;;;;;;;30.63;16.20;;;;;;;44.70;nan;100761.06;5112240;28;20044;-49
2023/06/30 01:49:36;;;;;;;31.17;17.00;;;;;;;45.29;nan;100761.59;5113004;28;20125;-49
2023/06/30 01:52:03;;;;;;;32.88;17.33;;;;;;;45.23;nan;100757.22;5111065;28;20687;-49
2023/06/30 01:54:30;;;;;;;35.00;18.08;;;;;;;45.26;nan;100760.22;5112514;28;20047;-49
2023/06/30 01:56:57;;;;;;;24.60;15.80;;;;;;;45.06;nan;100758.59;5107427;28;20043;-49
2023/06/30 01:59:24;;;;;;;29.33;16.80;;;;;;;45.01;nan;100761.47;5109521;28;20051;-49
2023/06/30 02:01:50;;;;;;;29.60;17.67;;;;;;;44.68;nan;100744.63;5109416;28;20055;-49
2023/06/30 02:04:17;;;;;;;29.08;16.27;;;;;;;45.35;nan;100749.22;5109980;28;20066;-49
2023/06/30 02:06:44;;;;;;;36.83;22.23;;;;;;;45.54;nan;100740.00;5111972;28;20107;-49
2023/06/30 02:09:12;;;;;;;29.50;15.32;;;;;;;45.37;nan;100746.97;5112115;28;20059;-49
2023/06/30 02:11:39;;;;;;;26.08;15.80;;;;;;;44.66;nan;100738.50;5102255;28;20340;-49
2023/06/30 02:14:06;;;;;;;23.30;15.30;;;;;;;45.14;nan;100736.72;5098063;28;20404;-49
2023/06/30 02:16:33;;;;;;;28.95;16.48;;;;;;;44.88;nan;100728.75;5109520;28;20154;-49
2023/06/30 02:18:59;;;;;;;26.83;15.93;;;;;;;43.15;nan;100750.56;5109378;28;20413;-49
2023/06/30 02:21:26;;;;;;;24.60;17.40;;;;;;;42.24;nan;100755.44;5109013;28;20044;-49
2023/06/30 02:23:53;;;;;;;29.10;16.95;;;;;;;43.30;nan;100746.00;5097715;28;20048;-49
2023/06/30 02:26:19;;;;;;;26.17;16.27;;;;;;;44.11;nan;100741.66;5102846;28;20075;-49
2023/06/30 02:28:46;;;;;;;35.17;18.60;;;;;;;44.75;nan;100735.06;5109437;28;20526;-49
2023/06/30 02:31:12;;;;;;;25.60;16.63;;;;;;;45.28;nan;100726.44;5099853;28;20058;-49
2023/06/30 02:33:39;;;;;;;30.50;17.75;;;;;;;44.77;nan;100732.81;5104290;28;20459;-49
2023/06/30 02:36:06;;;;;;;29.95;17.83;;;;;;;44.97;nan;100726.13;5094159;28;20325;-49
2023/06/30 02:38:32;;;;;;;28.25;17.40;;;;;;;45.32;nan;100726.66;5112336;28;20074;-49
2023/06/30 02:40:59;;;;;;;27.65;18.48;;;;;;;45.24;nan;100731.00;5098325;28;20406;-49
2023/06/30 02:43:26;;;;;;;27.35;16.80;;;;;;;45.11;nan;100737.34;5100463;28;20460;-49
2023/06/30 02:45:52;;;;;;;25.88;17.17;;;;;;;45.03;nan;100725.75;5104058;28;20039;-49
2023/06/30 02:48:19;;;;;;;29.13;17.83;;;;;;;45.10;nan;100730.09;5096376;28;20052;-49
2023/06/30 02:50:45;;;;;;;28.65;18.20;;;;;;;45.24;nan;100733.78;5105749;28;20054;-49
2023/06/30 02:53:12;;;;;;;35.13;17.38;;;;;;;45.35;nan;100726.91;5101410;28;20055;-49
2023/06/30 02:55:39;;;;;;;30.55;18.00;;;;;;;45.15;nan;100732.81;5095412;28;20048;-49
2023/06/30 02:58:05;;;;;;;31.98;17.40;;;;;;;45.33;nan;100726.34;5094473;28;20493;-49
2023/06/30 03:00:33;;;;;;;27.55;17.38;;;;;;;45.25;nan;100718.69;5105625;28;20055;-49
2023/06/30 03:03:00;;;;;;;23.52;15.82;;;;;;;45.39;nan;100714.00;5103698;28;20051;-49
2023/06/30 03:05:27;;;;;;;29.80;17.85;;;;;;;45.40;nan;100718.47;5109595;28;20039;-50
2023/06/30 03:07:54;;;;;;;27.30;16.02;;;;;;;45.64;nan;100714.69;5110511;28;20067;-49
2023/06/30 03:10:20;;;;;;;30.70;17.85;;;;;;;44.92;nan;100717.81;5108865;28;20059;-49
2023/06/30 03:12:47;;;;;;;32.38;16.27;;;;;;;44.76;nan;100714.41;5104609;28;20059;-49
2023/06/30 03:15:14;;;;;;;31.75;17.08;;;;;;;44.74;nan;100716.69;5103919;28;20105;-49
2023/06/30 03:17:40;;;;;;;26.83;17.90;;;;;;;44.30;nan;100713.88;5097143;28;20373;-49
2023/06/30 03:20:10;;;;;;;32.10;18.92;;;;;;;44.63;nan;100705.69;5100713;28;20056;-49
2023/06/30 03:22:37;;;;;;;37.05;19.65;;;;;;;44.65;nan;100709.00;5103166;28;20058;-49
2023/06/30 03:25:05;;;;;;;31.65;18.80;;;;;;;44.86;nan;100703.09;5108137;28;20462;-49
2023/06/30 03:27:32;;;;;;;31.55;18.73;;;;;;;45.01;nan;100705.69;5102928;28;20062;-49
2023/06/30 03:29:58;;;;;;;39.58;20.30;;;;;;;45.38;nan;100709.56;5101647;28;20784;-48
2023/06/30 03:32:25;;;;;;;30.17;19.83;;;;;;;45.36;nan;100706.25;5100328;28;20387;-49
2023/06/30 03:34:52;;;;;;;29.25;18.98;;;;;;;45.24;nan;100703.09;5096441;28;20055;-49
2023/06/30 03:37:18;;;;;;;25.27;16.73;;;;;;;45.42;nan;100705.03;5102216;28;20048;-49
2023/06/30 03:39:45;;;;;;;31.27;20.60;;;;;;;45.33;nan;100706.81;5108441;28;20131;-49
2023/06/30 03:42:12;;;;;;;30.83;17.85;;;;;;;45.14;nan;100706.03;5097106;28;20384;-49
2023/06/30 03:44:38;;;;;;;34.42;17.73;;;;;;;45.16;nan;100701.84;5109928;28;20047;-49
2023/06/30 03:47:05;;;;;;;31.17;18.20;;;;;;;45.32;nan;100701.56;5110768;28;20056;-49
2023/06/30 03:49:31;;;;;;;29.70;18.92;;;;;;;45.12;nan;100699.94;5109996;28;20054;-50
2023/06/30 03:51:58;;;;;;;31.77;18.92;;;;;;;45.12;nan;100705.53;5111490;28;20059;-48
2023/06/30 03:54:24;;;;;;;29.35;17.27;;;;;;;45.31;nan;100697.94;5111109;28;20566;-50
2023/06/30 03:56:51;;;;;;;27.35;16.92;;;;;;;45.07;nan;100709.22;5108712;28;20705;-49
2023/06/30 03:59:17;;;;;;;31.55;19.98;;;;;;;45.13;nan;100696.03;5098985;28;20560;-49
2023/06/30 04:01:44;;;;;;;27.88;18.40;;;;;;;45.13;nan;100696.84;5109697;28;20055;-49
2023/06/30 04:04:11;;;;;;;30.42;19.13;;;;;;;45.44;nan;100699.97;5108093;28;20048;-49
2023/06/30 04:06:38;;;;;;;34.08;18.95;;;;;;;45.63;nan;100704.69;5104497;28;20096;-49
2023/06/30 04:09:05;;;;;;;28.15;18.60;;;;;;;45.64;nan;100700.72;5109610;28;20063;-49
2023/06/30 04:11:31;;;;;;;30.55;19.00;;;;;;;45.42;nan;100707.81;5102396;28;20071;-50
2023/06/30 04:14:01;;;;;;;30.63;18.80;;;;;;;45.54;nan;100698.97;5095917;28;20059;-49
2023/06/30 04:16:28;;;;;;;30.30;20.17;;;;;;;45.64;nan;100700.72;5113261;28;20044;-49
2023/06/30 04:18:55;;;;;;;29.55;17.33;;;;;;;45.78;nan;100701.63;5115109;28;20555;-49
2023/06/30 04:21:22;;;;;;;30.17;18.45;;;;;;;45.79;nan;100697.69;5111651;28;20109;-49
2023/06/30 04:23:48;;;;;;;29.42;18.73;;;;;;;45.60;nan;100688.53;5114470;28;20058;-49
2023/06/30 04:26:18;;;;;;;33.60;19.58;;;;;;;45.62;nan;100697.44;5113234;28;20063;-49
2023/06/30 04:28:45;;;;;;;35.53;17.55;;;;;;;45.84;nan;100680.00;5100921;28;20115;-49
2023/06/30 04:31:11;;;;;;;33.55;18.45;;;;;;;45.98;nan;100691.19;5112616;28;20057;-49
2023/06/30 04:33:38;;;;;;;28.55;17.77;;;;;;;45.73;nan;100686.91;5104461;28;20055;-49
2023/06/30 04:36:06;;;;;;;31.77;19.33;;;;;;;45.69;nan;100685.84;5110541;28;20377;-49
2023/06/30 04:38:34;;;;;;;35.83;19.90;;;;;;;45.74;nan;100681.03;5111590;28;20058;-49
2023/06/30 04:41:01;;;;;;;27.90;17.08;;;;;;;45.84;nan;100679.19;5095401;28;20043;-48
2023/06/30 04:43:28;;;;;;;28.17;16.75;;;;;;;46.01;nan;100673.81;5113295;28;20055;-49
2023/06/30 04:45:54;;;;;;;33.92;19.33;;;;;;;45.79;nan;100680.94;5102274;28;20051;-49
2023/06/30 04:48:21;;;;;;;27.60;16.50;;;;;;;45.66;nan;100675.31;5108158;28;20380;-49
2023/06/30 04:50:47;;;;;;;28.88;17.35;;;;;;;43.37;nan;100668.66;5098915;28;20066;-49
2023/06/30 04:53:14;;;;;;;27.38;17.17;;;;;;;44.75;nan;100657.03;5099965;28;20048;-49
2023/06/30 04:55:40;;;;;;;29.08;17.20;;;;;;;45.29;nan;100654.78;5107379;28;20085;-49
2023/06/30 04:58:07;;;;;;;25.30;17.15;;;;;;;45.71;nan;100656.50;5109789;28;20051;-49
2023/06/30 05:00:34;;;;;;;25.38;16.00;;;;;;;45.47;nan;100655.88;5108994;28;20048;-49
2023/06/30 05:03:02;;;;;;;25.80;15.98;;;;;;;45.52;nan;100669.72;5106358;28;20051;-49
2023/06/30 05:05:28;;;;;;;27.02;17.00;;;;;;;45.02;nan;100668.31;5112870;27;20044;-49
2023/06/30 05:07:55;;;;;;;25.92;16.88;;;;;;;43.64;nan;100663.38;5110809;28;20475;-49
2023/06/30 05:10:22;;;;;;;29.38;18.35;;;;;;;44.12;nan;100661.75;5113227;28;20043;-49
2023/06/30 05:12:48;;;;;;;30.70;17.00;;;;;;;45.73;nan;100659.81;5113463;28;20048;-49
2023/06/30 05:15:15;;;;;;;28.50;16.60;;;;;;;44.25;nan;100661.03;5113242;28;20062;-49
2023/06/30 05:17:41;;;;;;;26.65;16.05;;;;;;;43.83;nan;100665.44;5102035;28;20047;-49
2023/06/30 05:20:09;;;;;;;26.08;15.98;;;;;;;43.37;nan;100668.66;5109025;27;20082;-49
2023/06/30 05:22:35;;;;;;;26.08;15.90;;;;;;;44.38;nan;100670.63;5095869;28;20055;-49
2023/06/30 05:25:02;;;;;;;25.17;13.57;;;;;;;44.09;nan;100667.91;5110698;28;20097;-49
2023/06/30 05:27:29;;;;;;;25.80;15.55;;;;;;;44.59;nan;100670.38;5102171;28;20124;-49
2023/06/30 05:29:55;;;;;;;27.85;16.08;;;;;;;43.74;nan;100661.63;5107559;28;20055;-49
2023/06/30 05:32:23;;;;;;;24.58;15.20;;;;;;;46.12;nan;100655.69;5112663;28;20143;-49
2023/06/30 05:34:50;;;;;;;27.05;15.35;;;;;;;44.65;nan;100652.47;5112423;28;20061;-49
2023/06/30 05:37:16;;;;;;;21.67;14.15;;;;;;;42.09;nan;100657.16;5102608;28;20070;-49
2023/06/30 05:39:43;;;;;;;23.42;15.25;;;;;;;43.14;nan;100664.66;5111824;28;20050;-49
2023/06/30 05:42:10;;;;;;;24.55;15.27;;;;;;;45.12;nan;100656.16;5097009;28;20429;-49
2023/06/30 05:44:36;;;;;;;23.60;14.57;;;;;;;46.03;nan;100665.94;5110456;27;20412;-49
2023/06/30 05:47:03;;;;;;;24.13;14.20;;;;;;;47.07;nan;100656.91;5112775;28;20353;-49
2023/06/30 05:49:30;;;;;;;25.35;16.00;;;;;;;47.77;nan;100660.09;5112732;28;20054;-48
2023/06/30 05:51:57;;;;;;;23.40;13.60;;;;;;;47.10;nan;100661.88;5113141;28;20063;-49
2023/06/30 05:54:24;;;;;;;24.92;14.27;;;;;;;46.34;nan;100668.09;5111158;28;20400;-49
2023/06/30 05:56:50;;;;;;;21.60;13.50;;;;;;;46.27;nan;100668.53;5110858;28;20057;-49
2023/06/30 05:59:17;;;;;;;27.35;15.27;;;;;;;44.35;nan;100668.44;5095040;28;20601;-49
2023/06/30 06:01:44;;;;;;;21.77;13.80;;;;;;;45.66;nan;100676.13;5113079;28;20067;-49
2023/06/30 06:04:11;;;;;;;24.13;14.38;;;;;;;45.25;nan;100665.69;5105150;28;20059;-49
2023/06/30 06:06:38;;;;;;;24.83;13.18;;;;;;;47.65;nan;100662.69;5103411;28;20055;-49
2023/06/30 06:09:05;;;;;;;25.52;14.73;;;;;;;46.94;nan;100657.78;5096148;28;20044;-49
2023/06/30 06:11:32;;;;;;;23.52;13.63;;;;;;;47.26;nan;100673.47;5100688;28;20204;-49
2023/06/30 06:13:58;;;;;;;24.45;14.70;;;;;;;42.85;nan;100674.59;5094740;28;20353;-49
2023/06/30 06:16:25;;;;;;;28.70;14.75;;;;;;;43.99;nan;100675.28;5097929;28;20095;-49
2023/06/30 06:18:52;;;;;;;27.35;13.95;;;;;;;45.43;nan;100676.00;5112264;28;20375;-49
2023/06/30 06:21:26;;;;;;;23.30;14.60;;;;;;;45.90;nan;100680.72;5111392;27;20486;-49
2023/06/30 06:23:56;;;;;;;19.02;12.68;;;;;;;43.44;nan;100675.56;5108697;28;20097;-49
2023/06/30 06:26:23;;;;;;;21.02;12.93;;;;;;;41.39;nan;100674.50;5110065;28;20506;-49
2023/06/30 06:28:50;;;;;;;23.15;14.18;;;;;;;42.50;nan;100675.63;5105914;28;20047;-49
2023/06/30 06:31:16;;;;;;;22.90;13.50;;;;;;;45.25;nan;100671.28;5107244;28;20561;-49
2023/06/30 06:33:43;;;;;;;24.80;13.55;;;;;;;45.74;nan;100672.66;5105331;28;20051;-49
2023/06/30 06:36:10;;;;;;;20.95;13.40;;;;;;;46.53;nan;100674.41;5110744;28;20048;-49
2023/06/30 06:38:38;;;;;;;24.27;14.15;;;;;;;46.69;nan;100674.03;5111626;28;20368;-49
2023/06/30 06:41:05;;;;;;;23.70;13.05;;;;;;;47.39;nan;100677.38;5103566;28;20403;-49
2023/06/30 06:43:31;;;;;;;21.08;12.90;;;;;;;46.70;nan;100681.28;5110332;28;20154;-50
2023/06/30 06:45:58;;;;;;;32.33;14.25;;;;;;;46.29;nan;100676.59;5096411;28;20104;-49
2023/06/30 06:48:27;;;;;;;21.77;13.95;;;;;;;46.45;nan;100677.91;5110451;28;20478;-49
2023/06/30 06:50:56;;;;;;;25.63;14.40;;;;;;;44.10;nan;100692.66;5102975;28;20055;-49
2023/06/30 06:53:27;;;;;;;27.17;15.13;;;;;;;40.63;nan;100698.22;5096205;28;20052;-49
2023/06/30 06:55:55;;;;;;;22.88;13.50;;;;;;;43.22;nan;100694.63;5102162;28;20451;-49
2023/06/30 06:58:24;;;;;;;25.92;14.60;;;;;;;45.95;nan;100689.81;5092576;28;20039;-49
2023/06/30 07:00:52;;;;;;;26.73;13.95;;;;;;;47.31;nan;100689.34;5102951;28;20059;-49
2023/06/30 07:03:19;;;;;;;21.10;13.10;;;;;;;48.17;nan;100693.72;5104383;28;20056;-49
2023/06/30 07:05:46;;;;;;;27.33;15.40;;;;;;;45.83;nan;100702.66;5103458;28;20069;-49
2023/06/30 07:08:14;;;;;;;23.75;15.05;;;;;;;46.22;nan;100704.09;5101147;28;20039;-49
2023/06/30 07:10:41;;;;;;;26.77;14.35;;;;;;;46.82;nan;100703.91;5102863;28;20420;-49
2023/06/30 07:13:08;;;;;;;25.02;14.30;;;;;;;48.09;nan;100702.91;5103711;28;20065;-49
2023/06/30 07:15:34;;;;;;;28.83;15.00;;;;;;;47.69;nan;100705.69;5104491;28;20505;-49
2023/06/30 07:18:01;;;;;;;23.95;15.60;;;;;;;47.89;nan;100702.31;5107936;28;20047;-49
2023/06/30 07:20:28;;;;;;;23.98;14.63;;;;;;;48.27;nan;100699.00;5097625;28;20044;-49
2023/06/30 07:22:56;;;;;;;25.67;14.63;;;;;;;47.76;nan;100694.88;5092262;28;20124;-49
2023/06/30 07:25:24;;;;;;;25.83;15.38;;;;;;;48.26;nan;100697.34;5103947;28;20060;-49
2023/06/30 07:27:55;;;;;;;24.63;15.65;;;;;;;48.52;nan;100682.56;5098917;28;20077;-49
2023/06/30 07:30:24;;;;;;;27.80;15.88;;;;;;;47.92;nan;100676.47;5107526;28;20058;-49
2023/06/30 07:32:51;;;;;;;23.80;15.80;;;;;;;47.50;nan;100681.53;5106019;28;20062;-49
2023/06/30 07:35:18;;;;;;;26.42;14.50;;;;;;;47.23;nan;100683.34;5106111;28;20051;-49
2023/06/30 07:37:45;;;;;;;27.77;16.05;;;;;;;47.38;nan;100684.13;5096290;28;20056;-50
2023/06/30 07:40:13;;;;;;;29.38;15.68;;;;;;;48.12;nan;100685.47;5101007;28;20409;-49
2023/06/30 07:42:43;;;;;;;24.55;14.55;;;;;;;47.54;nan;100682.56;5106802;28;20055;-49
2023/06/30 07:45:13;;;;;;;30.02;16.45;;;;;;;47.64;nan;100691.81;5106199;28;20043;-49
2023/06/30 07:47:41;;;;;;;28.38;15.98;;;;;;;47.41;nan;100689.06;5108685;28;20044;-49
2023/06/30 07:50:11;;;;;;;25.55;15.43;;;;;;;46.45;nan;100691.06;5108272;28;20113;-49
2023/06/30 07:52:47;;;;;;;26.92;16.50;;;;;;;46.83;nan;100691.56;5095529;28;20048;-49
2023/06/30 07:55:16;;;;;;;31.52;16.95;;;;;;;48.31;nan;100688.78;5104918;28;20052;-49
2023/06/30 07:57:43;;;;;;;26.95;17.08;;;;;;;46.81;nan;100693.06;5097989;28;20093;-49
2023/06/30 08:00:20;;;;;;;27.75;16.38;;;;;;;46.95;nan;100704.19;5103633;28;20066;-49
2023/06/30 08:02:47;;;;;;;22.60;15.57;;;;;;;48.85;nan;100702.56;5114736;28;20059;-49
2023/06/30 08:05:14;;;;;;;24.52;16.08;;;;;;;49.53;nan;100703.97;5114439;28;20039;-49
2023/06/30 08:07:40;;;;;;;24.38;15.90;;;;;;;48.93;nan;100698.09;5112299;27;20335;-49
2023/06/30 08:10:14;;;;;;;27.52;15.38;;;;;;;48.27;nan;100692.56;5108806;28;20044;-49
2023/06/30 08:12:41;;;;;;;29.67;16.85;;;;;;;49.51;nan;100695.88;5097959;28;20048;-49
2023/06/30 08:15:08;;;;;;;27.67;17.05;;;;;;;48.98;nan;100697.94;5104579;28;20139;-49
2023/06/30 08:17:34;;;;;;;26.65;16.02;;;;;;;48.50;nan;100696.91;5114256;28;20044;-50
2023/06/30 08:20:15;;;;;;;31.27;15.77;;;;;;;47.09;nan;100692.97;5104877;28;20120;-49
2023/06/30 08:22:42;;;;;;;27.35;17.33;;;;;;;45.14;nan;100692.09;5103531;28;20043;-49
2023/06/30 08:25:10;;;;;;;30.13;17.90;;;;;;;46.29;nan;100693.34;5111002;28;20374;-50
2023/06/30 08:27:37;;;;;;;32.60;19.83;;;;;;;47.28;nan;100689.97;5105088;28;20063;-50
2023/06/30 08:30:04;;;;;;;32.20;18.48;;;;;;;44.92;nan;100692.72;5114050;28;20058;-49
2023/06/30 08:32:30;;;;;;;34.53;19.67;;;;;;;47.52;nan;100693.22;5099020;28;20089;-49
2023/06/30 08:34:57;;;;;;;31.95;20.58;;;;;;;48.08;nan;100701.25;5102051;28;20064;-49
2023/06/30 08:37:23;;;;;;;32.58;19.33;;;;;;;48.50;nan;100710.09;5110299;28;20054;-49
2023/06/30 08:39:50;;;;;;;32.55;19.20;;;;;;;48.98;nan;100711.97;5113915;28;20055;-49
2023/06/30 08:42:20;;;;;;;32.92;20.63;;;;;;;48.22;nan;100707.56;5111674;28;20059;-49
2023/06/30 08:44:49;;;;;;;34.30;19.42;;;;;;;48.67;nan;100707.31;5112906;28;20051;-49
2023/06/30 08:47:17;;;;;;;38.70;20.23;;;;;;;46.30;nan;100700.56;5113895;28;20047;-49
2023/06/30 08:49:44;;;;;;;33.00;20.10;;;;;;;48.56;nan;100705.19;5110093;28;20112;-50
2023/06/30 08:52:11;;;;;;;37.20;22.77;;;;;;;47.59;nan;100703.97;5113911;27;20066;-49
2023/06/30 08:54:38;;;;;;;35.45;21.77;;;;;;;47.29;nan;100711.22;5110582;28;20040;-49
2023/06/30 08:57:05;;;;;;;37.30;21.92;;;;;;;47.22;nan;100709.66;5113964;28;20066;-49
2023/06/30 08:59:32;;;;;;;36.80;22.25;;;;;;;48.65;nan;100717.19;5108800;28;20055;-49
2023/06/30 09:02:00;;;;;;;34.97;21.10;;;;;;;45.74;nan;100722.88;5093916;28;20101;-49
2023/06/30 09:04:27;;;;;;;32.40;20.55;;;;;;;45.92;nan;100723.13;5107066;28;20058;-49
2023/06/30 09:06:55;;;;;;;40.80;22.77;;;;;;;42.39;nan;100721.22;5109944;28;20085;-49
2023/06/30 09:09:37;;;;;;;31.00;20.90;;;;;;;45.26;nan;100712.81;5113207;28;20058;-49
2023/06/30 09:12:05;;;;;;;36.67;22.52;;;;;;;47.20;nan;100711.97;5107681;28;20368;-49
2023/06/30 09:14:34;;;;;;;36.22;22.73;;;;;;;46.53;nan;100710.72;5113002;27;20051;-49
2023/06/30 09:17:00;;;;;;;37.50;22.23;;;;;;;47.11;nan;100713.84;5110181;28;20051;-49
2023/06/30 09:19:28;;;;;;;35.83;21.17;;;;;;;48.31;nan;100716.81;5097431;28;20057;-49
2023/06/30 09:21:58;;;;;;;32.90;19.65;;;;;;;47.46;nan;100702.94;5113362;28;20047;-50
2023/06/30 09:24:25;;;;;;;40.30;21.85;;;;;;;48.08;nan;100712.44;5109477;28;20043;-49
2023/06/30 09:26:54;;;;;;;33.00;19.42;;;;;;;46.66;nan;100714.63;5113225;28;20075;-49
2023/06/30 09:29:22;;;;;;;32.22;19.90;;;;;;;47.38;nan;100695.31;5109519;28;20058;-49
2023/06/30 09:31:52;;;;;;;29.63;19.13;;;;;;;47.77;nan;100696.50;5113597;28;20047;-49
2023/06/30 09:34:19;;;;;;;34.45;20.23;;;;;;;47.27;nan;100705.09;5108120;28;20059;-49
2023/06/30 09:36:50;;;;;;;33.47;19.48;;;;;;;46.67;nan;100710.66;5109351;28;20055;-49
2023/06/30 09:39:18;;;;;;;32.38;19.60;;;;;;;47.15;nan;100703.69;5113365;28;20055;-49
2023/06/30 09:41:46;;;;;;;35.08;20.33;;;;;;;47.50;nan;100703.94;5098793;28;20059;-49
2023/06/30 09:44:14;;;;;;;33.33;19.33;;;;;;;46.55;nan;100706.78;5094829;28;20086;-49
2023/06/30 09:46:48;;;;;;;31.45;18.80;;;;;;;46.75;nan;100705.50;5109727;28;20048;-49
2023/06/30 09:49:24;;;;;;;31.35;17.67;;;;;;;46.99;nan;100711.63;5112535;28;20062;-49
2023/06/30 09:51:52;;;;;;;32.58;19.50;;;;;;;47.17;nan;100707.00;5109530;28;20373;-49
2023/06/30 09:54:18;;;;;;;34.88;18.85;;;;;;;47.48;nan;100706.22;5111223;28;21235;-49
2023/06/30 09:56:58;;;;;;;36.97;19.60;;;;;;;46.57;nan;100707.31;5112657;28;20116;-49
2023/06/30 09:59:25;;;;;;;31.27;18.50;;;;;;;47.51;nan;100705.59;5109599;28;20048;-50
2023/06/30 10:01:54;;;;;;;29.65;17.52;;;;;;;47.90;nan;100715.19;5111386;28;20056;-49
2023/06/30 10:04:21;;;;;;;32.63;19.45;;;;;;;45.96;nan;100713.00;5108382;28;20134;-49
2023/06/30 10:06:50;;;;;;;28.90;17.80;;;;;;;45.40;nan;100707.31;5113773;27;20052;-48
2023/06/30 10:09:20;;;;;;;30.77;18.60;;;;;;;46.02;nan;100717.31;5110470;28;20055;-49
2023/06/30 10:11:52;;;;;;;32.78;18.27;;;;;;;46.99;nan;100722.00;5110310;28;20050;-49
2023/06/30 10:14:29;;;;;;;29.65;16.30;;;;;;;45.64;nan;100720.25;5112599;28;20059;-49
2023/06/30 10:16:57;;;;;;;28.23;15.18;;;;;;;47.59;nan;100726.34;5109242;28;20060;-49
2023/06/30 10:19:25;;;;;;;27.75;15.82;;;;;;;45.73;nan;100721.22;5112218;28;20044;-50
2023/06/30 10:21:52;;;;;;;28.42;16.00;;;;;;;45.26;nan;100723.16;5106978;27;20051;-49
2023/06/30 10:24:25;;;;;;;23.13;14.77;;;;;;;45.67;nan;100721.63;5094665;28;20785;-49
2023/06/30 10:26:54;;;;;;;25.58;14.52;;;;;;;46.10;nan;100725.00;5109058;28;20052;-49
2023/06/30 10:29:21;;;;;;;24.27;14.50;;;;;;;46.57;nan;100721.28;5110344;28;20055;-49
2023/06/30 10:31:48;;;;;;;25.83;15.05;;;;;;;46.45;nan;100714.22;5111888;28;20051;-49
2023/06/30 10:34:16;;;;;;;25.23;14.77;;;;;;;45.14;nan;100714.41;5107919;28;20111;-49
2023/06/30 10:36:43;;;;;;;26.92;14.68;;;;;;;45.35;nan;100715.75;5114445;27;20133;-49
2023/06/30 10:39:11;;;;;;;24.90;15.38;;;;;;;43.66;nan;100704.00;5109116;27;20043;-49
2023/06/30 10:41:47;;;;;;;25.50;16.00;;;;;;;45.37;nan;100707.91;5111819;28;20069;-49
2023/06/30 10:44:15;;;;;;;24.73;15.77;;;;;;;45.89;nan;100707.84;5108690;27;20474;-50
2023/06/30 10:46:49;;;;;;;27.35;16.35;;;;;;;46.53;nan;100715.50;5092669;28;20052;-49
2023/06/30 10:49:25;;;;;;;23.08;14.85;;;;;;;46.63;nan;100715.25;5106105;28;20044;-50
2023/06/30 10:51:54;;;;;;;28.13;16.65;;;;;;;46.69;nan;100713.16;5110480;28;20654;-49
2023/06/30 10:54:25;;;;;;;26.63;16.58;;;;;;;45.78;nan;100711.97;5110850;28;20171;-50
2023/06/30 10:57:06;;;;;;;33.55;19.42;;;;;;;44.71;nan;100705.03;5107952;28;20073;-50
2023/06/30 10:59:41;;;;;;;27.90;16.30;;;;;;;44.89;nan;100702.50;5111989;28;20054;-50
2023/06/30 11:02:16;;;;;;;31.55;17.00;;;;;;;45.75;nan;100707.81;5108510;28;20063;-49
2023/06/30 11:04:49;;;;;;;28.20;16.92;;;;;;;45.96;nan;100701.84;5110528;28;20043;-49
2023/06/30 11:07:24;;;;;;;29.25;16.13;;;;;;;46.39;nan;100704.28;5105422;28;20051;-49
2023/06/30 11:09:50;;;;;;;26.85;16.73;;;;;;;46.23;nan;100705.78;5110329;28;20471;-49
2023/06/30 11:12:24;;;;;;;27.70;17.42;;;;;;;45.65;nan;100709.94;5111549;28;20051;-49
2023/06/30 11:14:58;;;;;;;34.47;19.48;;;;;;;45.63;nan;100701.88;5100228;28;20058;-50
2023/06/30 11:17:27;;;;;;;31.42;18.05;;;;;;;45.54;nan;100700.94;5093360;28;20063;-50
2023/06/30 11:20:11;;;;;;;33.72;19.52;;;;;;;44.98;nan;100695.16;5107186;28;20059;-50
2023/06/30 11:22:39;;;;;;;35.25;19.50;;;;;;;45.85;nan;100705.97;5113664;28;20115;-49
2023/06/30 11:25:13;;;;;;;32.55;19.15;;;;;;;47.36;nan;100698.44;5112212;28;20043;-49
2023/06/30 11:27:40;;;;;;;38.90;20.95;;;;;;;46.53;nan;100707.94;5116002;28;20051;-50